sensor_id;sensor_type;location;lat;lon;timestamp;P1;durP1;ratioP1;P2;durP2;ratioP2
47778;SDS011;33538;48.432;11.350;2024-01-15T00:01:46;14.07;;;5.70;;
47778;SDS011;33538;48.432;11.350;2024-01-15T00:04:13;13.27;;;4.75;;
47778;SDS011;33538;48.432;11.350;2024-01-15T00:06:40;11.60;;;4.30;;
47778;SDS011;33538;48.432;11.350;2024-01-15T00:09:07;5.90;;;3.65;;
47778;SDS011;33538;48.432;11.350;2024-01-15T00:11:34;17.45;;;6.85;;
47778;SDS011;33538;48.432;11.350;2024-01-15T00:14:02;13.27;;;5.20;;
47778;SDS011;33538;48.432;11.350;2024-01-15T00:16:29;12.07;;;4.45;;
47778;SDS011;33538;48.432;11.350;2024-01-15T00:18:56;8.48;;;3.28;;
47778;SDS011;33538;48.432;11.350;2024-01-15T00:21:23;14.23;;;5.70;;
47778;SDS011;33538;48.432;11.350;2024-01-15T00:23:50;8.80;;;2.92;;
47778;SDS011;33538;48.432;11.350;2024-01-15T00:26:17;10.45;;;3.72;;
47778;SDS011;33538;48.432;11.350;2024-01-15T00:28:43;10.38;;;4.40;;
47778;SDS011;33538;48.432;11.350;2024-01-15T00:31:11;13.90;;;4.25;;
47778;SDS011;33538;48.432;11.350;2024-01-15T00:33:38;8.05;;;4.43;;
47778;SDS011;33538;48.432;11.350;2024-01-15T00:36:06;16.02;;;5.38;;
47778;SDS011;33538;48.432;11.350;2024-01-15T00:38:33;21.35;;;4.70;;
47778;SDS011;33538;48.432;11.350;2024-01-15T00:41:00;9.50;;;4.00;;
47778;SDS011;33538;48.432;11.350;2024-01-15T00:43:27;7.32;;;2.67;;
47778;SDS011;33538;48.432;11.350;2024-01-15T00:45:54;17.95;;;5.63;;
47778;SDS011;33538;48.432;11.350;2024-01-15T00:48:22;9.38;;;4.40;;
47778;SDS011;33538;48.432;11.350;2024-01-15T00:50:49;13.32;;;5.50;;
47778;SDS011;33538;48.432;11.350;2024-01-15T00:53:16;12.32;;;3.72;;
47778;SDS011;33538;48.432;11.350;2024-01-15T00:55:42;10.55;;;4.85;;
47778;SDS011;33538;48.432;11.350;2024-01-15T00:58:09;13.27;;;3.80;;
47778;SDS011;33538;48.432;11.350;2024-01-15T01:00:36;9.63;;;4.28;;
47778;SDS011;33538;48.432;11.350;2024-01-15T01:03:03;8.15;;;3.30;;
47778;SDS011;33538;48.432;11.350;2024-01-15T01:05:32;7.00;;;2.28;;
47778;SDS011;33538;48.432;11.350;2024-01-15T01:07:59;15.70;;;4.38;;
47778;SDS011;33538;48.432;11.350;2024-01-15T01:10:26;6.28;;;2.80;;
47778;SDS011;33538;48.432;11.350;2024-01-15T01:12:54;16.83;;;5.03;;
47778;SDS011;33538;48.432;11.350;2024-01-15T01:15:20;16.70;;;4.60;;
47778;SDS011;33538;48.432;11.350;2024-01-15T01:17:47;9.07;;;4.30;;
47778;SDS011;33538;48.432;11.350;2024-01-15T01:20:14;9.02;;;4.63;;
47778;SDS011;33538;48.432;11.350;2024-01-15T01:22:46;16.05;;;6.82;;
47778;SDS011;33538;48.432;11.350;2024-01-15T01:25:12;8.93;;;4.43;;
47778;SDS011;33538;48.432;11.350;2024-01-15T01:27:39;13.85;;;5.47;;
47778;SDS011;33538;48.432;11.350;2024-01-15T01:30:07;7.72;;;3.85;;
47778;SDS011;33538;48.432;11.350;2024-01-15T01:32:35;10.75;;;5.50;;
47778;SDS011;33538;48.432;11.350;2024-01-15T01:35:02;14.02;;;4.38;;
47778;SDS011;33538;48.432;11.350;2024-01-15T01:37:29;23.63;;;6.80;;
47778;SDS011;33538;48.432;11.350;2024-01-15T01:39:57;21.95;;;5.05;;
47778;SDS011;33538;48.432;11.350;2024-01-15T01:42:23;12.85;;;5.30;;
47778;SDS011;33538;48.432;11.350;2024-01-15T01:44:50;12.10;;;5.13;;
47778;SDS011;33538;48.432;11.350;2024-01-15T01:47:17;14.38;;;4.78;;
47778;SDS011;33538;48.432;11.350;2024-01-15T01:49:45;16.45;;;4.65;;
47778;SDS011;33538;48.432;11.350;2024-01-15T01:52:12;8.27;;;3.85;;
47778;SDS011;33538;48.432;11.350;2024-01-15T01:54:40;9.40;;;4.20;;
47778;SDS011;33538;48.432;11.350;2024-01-15T01:57:09;9.15;;;3.75;;
47778;SDS011;33538;48.432;11.350;2024-01-15T01:59:36;8.45;;;4.45;;
47778;SDS011;33538;48.432;11.350;2024-01-15T02:02:04;24.35;;;5.40;;
47778;SDS011;33538;48.432;11.350;2024-01-15T02:04:32;17.33;;;4.75;;
47778;SDS011;33538;48.432;11.350;2024-01-15T02:06:59;12.32;;;5.30;;
47778;SDS011;33538;48.432;11.350;2024-01-15T02:09:26;12.90;;;5.03;;
47778;SDS011;33538;48.432;11.350;2024-01-15T02:11:53;13.32;;;5.22;;
47778;SDS011;33538;48.432;11.350;2024-01-15T02:14:22;12.43;;;5.68;;
47778;SDS011;33538;48.432;11.350;2024-01-15T02:16:48;9.10;;;4.10;;
47778;SDS011;33538;48.432;11.350;2024-01-15T02:19:15;11.85;;;6.00;;
47778;SDS011;33538;48.432;11.350;2024-01-15T02:21:43;13.18;;;5.43;;
47778;SDS011;33538;48.432;11.350;2024-01-15T02:24:11;16.70;;;6.15;;
47778;SDS011;33538;48.432;11.350;2024-01-15T02:26:38;9.00;;;4.82;;
47778;SDS011;33538;48.432;11.350;2024-01-15T02:29:05;18.67;;;5.53;;
47778;SDS011;33538;48.432;11.350;2024-01-15T02:31:33;13.13;;;5.15;;
47778;SDS011;33538;48.432;11.350;2024-01-15T02:34:00;10.68;;;3.97;;
47778;SDS011;33538;48.432;11.350;2024-01-15T02:36:27;11.18;;;4.18;;
47778;SDS011;33538;48.432;11.350;2024-01-15T02:38:54;12.95;;;5.68;;
47778;SDS011;33538;48.432;11.350;2024-01-15T02:41:22;12.70;;;5.38;;
47778;SDS011;33538;48.432;11.350;2024-01-15T02:43:49;15.35;;;5.60;;
47778;SDS011;33538;48.432;11.350;2024-01-15T02:46:16;12.38;;;4.55;;
47778;SDS011;33538;48.432;11.350;2024-01-15T02:48:42;11.00;;;4.68;;
47778;SDS011;33538;48.432;11.350;2024-01-15T02:51:10;12.90;;;3.72;;
47778;SDS011;33538;48.432;11.350;2024-01-15T02:53:36;10.95;;;4.55;;
47778;SDS011;33538;48.432;11.350;2024-01-15T02:56:03;13.52;;;4.07;;
47778;SDS011;33538;48.432;11.350;2024-01-15T02:58:32;14.30;;;4.85;;
47778;SDS011;33538;48.432;11.350;2024-01-15T03:00:58;12.40;;;3.67;;
47778;SDS011;33538;48.432;11.350;2024-01-15T03:03:25;17.10;;;4.20;;
47778;SDS011;33538;48.432;11.350;2024-01-15T03:05:53;9.82;;;4.75;;
47778;SDS011;33538;48.432;11.350;2024-01-15T03:08:19;13.55;;;4.70;;
47778;SDS011;33538;48.432;11.350;2024-01-15T03:10:46;13.73;;;3.85;;
47778;SDS011;33538;48.432;11.350;2024-01-15T03:13:13;8.07;;;3.00;;
47778;SDS011;33538;48.432;11.350;2024-01-15T03:15:42;15.27;;;5.25;;
47778;SDS011;33538;48.432;11.350;2024-01-15T03:18:09;12.13;;;4.22;;
47778;SDS011;33538;48.432;11.350;2024-01-15T03:20:37;14.65;;;3.78;;
47778;SDS011;33538;48.432;11.350;2024-01-15T03:23:03;10.02;;;3.65;;
47778;SDS011;33538;48.432;11.350;2024-01-15T03:25:30;7.13;;;3.42;;
47778;SDS011;33538;48.432;11.350;2024-01-15T03:27:57;11.05;;;4.15;;
47778;SDS011;33538;48.432;11.350;2024-01-15T03:30:24;11.88;;;3.50;;
47778;SDS011;33538;48.432;11.350;2024-01-15T03:32:52;13.35;;;4.15;;
47778;SDS011;33538;48.432;11.350;2024-01-15T03:35:19;7.13;;;3.15;;
47778;SDS011;33538;48.432;11.350;2024-01-15T03:37:46;10.80;;;4.30;;
47778;SDS011;33538;48.432;11.350;2024-01-15T03:40:12;11.07;;;3.58;;
47778;SDS011;33538;48.432;11.350;2024-01-15T03:42:40;13.30;;;3.60;;
47778;SDS011;33538;48.432;11.350;2024-01-15T03:45:07;10.52;;;4.43;;
47778;SDS011;33538;48.432;11.350;2024-01-15T03:47:34;10.52;;;4.20;;
47778;SDS011;33538;48.432;11.350;2024-01-15T03:50:02;10.93;;;4.25;;
47778;SDS011;33538;48.432;11.350;2024-01-15T03:52:29;11.93;;;4.88;;
47778;SDS011;33538;48.432;11.350;2024-01-15T03:54:56;9.93;;;3.47;;
47778;SDS011;33538;48.432;11.350;2024-01-15T03:57:23;7.35;;;3.28;;
47778;SDS011;33538;48.432;11.350;2024-01-15T03:59:49;7.32;;;2.97;;
47778;SDS011;33538;48.432;11.350;2024-01-15T04:02:16;5.45;;;2.83;;
47778;SDS011;33538;48.432;11.350;2024-01-15T04:04:43;7.65;;;2.83;;
47778;SDS011;33538;48.432;11.350;2024-01-15T04:07:11;5.80;;;2.13;;
47778;SDS011;33538;48.432;11.350;2024-01-15T04:09:38;9.52;;;3.45;;
47778;SDS011;33538;48.432;11.350;2024-01-15T04:12:05;6.03;;;3.40;;
47778;SDS011;33538;48.432;11.350;2024-01-15T04:14:32;7.78;;;3.53;;
47778;SDS011;33538;48.432;11.350;2024-01-15T04:16:59;6.80;;;2.58;;
47778;SDS011;33538;48.432;11.350;2024-01-15T04:19:26;5.50;;;2.92;;
47778;SDS011;33538;48.432;11.350;2024-01-15T04:21:53;8.38;;;3.33;;
47778;SDS011;33538;48.432;11.350;2024-01-15T04:24:21;5.85;;;2.75;;
47778;SDS011;33538;48.432;11.350;2024-01-15T04:26:48;5.20;;;2.53;;
47778;SDS011;33538;48.432;11.350;2024-01-15T04:29:15;8.50;;;3.30;;
47778;SDS011;33538;48.432;11.350;2024-01-15T04:31:41;10.63;;;2.85;;
47778;SDS011;33538;48.432;11.350;2024-01-15T04:34:08;5.05;;;2.35;;
47778;SDS011;33538;48.432;11.350;2024-01-15T04:36:38;6.05;;;2.22;;
47778;SDS011;33538;48.432;11.350;2024-01-15T04:39:05;11.85;;;3.75;;
47778;SDS011;33538;48.432;11.350;2024-01-15T04:41:34;8.13;;;2.80;;
47778;SDS011;33538;48.432;11.350;2024-01-15T04:44:00;5.93;;;2.67;;
47778;SDS011;33538;48.432;11.350;2024-01-15T04:46:27;11.75;;;2.95;;
47778;SDS011;33538;48.432;11.350;2024-01-15T04:48:54;6.10;;;2.22;;
47778;SDS011;33538;48.432;11.350;2024-01-15T04:51:21;5.38;;;2.53;;
47778;SDS011;33538;48.432;11.350;2024-01-15T04:53:48;5.82;;;2.45;;
47778;SDS011;33538;48.432;11.350;2024-01-15T04:56:15;7.05;;;3.25;;
47778;SDS011;33538;48.432;11.350;2024-01-15T04:58:43;7.93;;;3.28;;
47778;SDS011;33538;48.432;11.350;2024-01-15T05:01:10;6.40;;;2.13;;
47778;SDS011;33538;48.432;11.350;2024-01-15T05:03:37;6.75;;;2.28;;
47778;SDS011;33538;48.432;11.350;2024-01-15T05:06:04;5.47;;;2.22;;
47778;SDS011;33538;48.432;11.350;2024-01-15T05:08:31;3.13;;;2.05;;
47778;SDS011;33538;48.432;11.350;2024-01-15T05:10:58;4.15;;;2.08;;
47778;SDS011;33538;48.432;11.350;2024-01-15T05:13:25;10.07;;;2.40;;
47778;SDS011;33538;48.432;11.350;2024-01-15T05:15:53;5.32;;;2.40;;
47778;SDS011;33538;48.432;11.350;2024-01-15T05:18:20;4.80;;;2.10;;
47778;SDS011;33538;48.432;11.350;2024-01-15T05:20:47;9.98;;;2.80;;
47778;SDS011;33538;48.432;11.350;2024-01-15T05:23:14;5.65;;;2.58;;
47778;SDS011;33538;48.432;11.350;2024-01-15T05:25:41;3.65;;;2.15;;
47778;SDS011;33538;48.432;11.350;2024-01-15T05:28:07;5.82;;;2.55;;
47778;SDS011;33538;48.432;11.350;2024-01-15T05:30:34;6.55;;;2.15;;
47778;SDS011;33538;48.432;11.350;2024-01-15T05:33:03;5.30;;;2.22;;
47778;SDS011;33538;48.432;11.350;2024-01-15T05:35:30;6.70;;;2.80;;
47778;SDS011;33538;48.432;11.350;2024-01-15T05:37:57;6.15;;;2.70;;
47778;SDS011;33538;48.432;11.350;2024-01-15T05:40:24;3.35;;;1.98;;
47778;SDS011;33538;48.432;11.350;2024-01-15T05:42:51;7.05;;;3.33;;
47778;SDS011;33538;48.432;11.350;2024-01-15T05:45:18;3.83;;;1.75;;
47778;SDS011;33538;48.432;11.350;2024-01-15T05:47:45;4.43;;;2.42;;
47778;SDS011;33538;48.432;11.350;2024-01-15T05:50:13;3.80;;;1.85;;
47778;SDS011;33538;48.432;11.350;2024-01-15T05:52:40;6.53;;;2.28;;
47778;SDS011;33538;48.432;11.350;2024-01-15T05:55:07;5.00;;;1.88;;
47778;SDS011;33538;48.432;11.350;2024-01-15T05:57:34;6.65;;;2.35;;
47778;SDS011;33538;48.432;11.350;2024-01-15T06:00:01;2.17;;;1.67;;
47778;SDS011;33538;48.432;11.350;2024-01-15T06:02:27;3.35;;;2.13;;
47778;SDS011;33538;48.432;11.350;2024-01-15T06:04:54;7.07;;;2.40;;
47778;SDS011;33538;48.432;11.350;2024-01-15T06:07:23;4.90;;;2.30;;
47778;SDS011;33538;48.432;11.350;2024-01-15T06:09:50;3.88;;;2.22;;
47778;SDS011;33538;48.432;11.350;2024-01-15T06:12:16;4.00;;;1.60;;
47778;SDS011;33538;48.432;11.350;2024-01-15T06:14:43;8.43;;;1.95;;
47778;SDS011;33538;48.432;11.350;2024-01-15T06:17:11;3.38;;;1.95;;
47778;SDS011;33538;48.432;11.350;2024-01-15T06:19:38;4.07;;;2.03;;
47778;SDS011;33538;48.432;11.350;2024-01-15T06:22:05;5.93;;;1.90;;
47778;SDS011;33538;48.432;11.350;2024-01-15T06:24:33;3.75;;;2.00;;
47778;SDS011;33538;48.432;11.350;2024-01-15T06:27:00;3.28;;;1.95;;
47778;SDS011;33538;48.432;11.350;2024-01-15T06:29:27;2.75;;;2.10;;
47778;SDS011;33538;48.432;11.350;2024-01-15T06:31:54;6.70;;;2.03;;
47778;SDS011;33538;48.432;11.350;2024-01-15T06:34:21;4.85;;;2.72;;
47778;SDS011;33538;48.432;11.350;2024-01-15T06:36:48;4.63;;;2.25;;
47778;SDS011;33538;48.432;11.350;2024-01-15T06:39:15;4.18;;;1.85;;
47778;SDS011;33538;48.432;11.350;2024-01-15T06:41:43;5.05;;;2.08;;
47778;SDS011;33538;48.432;11.350;2024-01-15T06:44:10;7.32;;;2.47;;
47778;SDS011;33538;48.432;11.350;2024-01-15T06:46:41;3.42;;;1.45;;
47778;SDS011;33538;48.432;11.350;2024-01-15T06:49:08;4.90;;;2.10;;
47778;SDS011;33538;48.432;11.350;2024-01-15T06:51:35;4.93;;;2.08;;
47778;SDS011;33538;48.432;11.350;2024-01-15T06:54:02;6.07;;;2.63;;
47778;SDS011;33538;48.432;11.350;2024-01-15T06:56:29;2.90;;;1.52;;
47778;SDS011;33538;48.432;11.350;2024-01-15T06:58:58;4.97;;;1.75;;
47778;SDS011;33538;48.432;11.350;2024-01-15T07:01:25;2.15;;;1.63;;
47778;SDS011;33538;48.432;11.350;2024-01-15T07:03:52;6.43;;;2.60;;
47778;SDS011;33538;48.432;11.350;2024-01-15T07:06:19;1.40;;;1.13;;
47778;SDS011;33538;48.432;11.350;2024-01-15T07:08:46;2.92;;;1.33;;
47778;SDS011;33538;48.432;11.350;2024-01-15T07:11:13;6.60;;;2.55;;
47778;SDS011;33538;48.432;11.350;2024-01-15T07:13:39;10.80;;;2.53;;
47778;SDS011;33538;48.432;11.350;2024-01-15T07:16:08;7.65;;;2.60;;
47778;SDS011;33538;48.432;11.350;2024-01-15T07:18:35;4.03;;;1.85;;
47778;SDS011;33538;48.432;11.350;2024-01-15T07:21:02;7.47;;;2.20;;
47778;SDS011;33538;48.432;11.350;2024-01-15T07:23:30;7.35;;;2.00;;
47778;SDS011;33538;48.432;11.350;2024-01-15T07:25:57;4.38;;;2.00;;
47778;SDS011;33538;48.432;11.350;2024-01-15T07:28:24;2.38;;;1.73;;
47778;SDS011;33538;48.432;11.350;2024-01-15T07:30:51;9.00;;;2.28;;
47778;SDS011;33538;48.432;11.350;2024-01-15T07:33:19;2.47;;;1.27;;
47778;SDS011;33538;48.432;11.350;2024-01-15T07:35:46;2.40;;;1.80;;
47778;SDS011;33538;48.432;11.350;2024-01-15T07:38:13;2.47;;;1.52;;
47778;SDS011;33538;48.432;11.350;2024-01-15T07:40:40;8.15;;;3.70;;
47778;SDS011;33538;48.432;11.350;2024-01-15T07:43:07;1.83;;;1.20;;
47778;SDS011;33538;48.432;11.350;2024-01-15T07:45:33;2.28;;;1.27;;
47778;SDS011;33538;48.432;11.350;2024-01-15T07:48:00;5.32;;;2.13;;
47778;SDS011;33538;48.432;11.350;2024-01-15T07:50:29;5.07;;;1.60;;
47778;SDS011;33538;48.432;11.350;2024-01-15T07:52:55;3.92;;;1.88;;
47778;SDS011;33538;48.432;11.350;2024-01-15T07:55:22;3.10;;;1.15;;
47778;SDS011;33538;48.432;11.350;2024-01-15T07:57:49;2.17;;;1.20;;
47778;SDS011;33538;48.432;11.350;2024-01-15T08:00:28;0.45;;;0.43;;
47778;SDS011;33538;48.432;11.350;2024-01-15T08:02:55;1.98;;;1.15;;
47778;SDS011;33538;48.432;11.350;2024-01-15T08:05:21;4.47;;;1.55;;
47778;SDS011;33538;48.432;11.350;2024-01-15T08:07:49;4.15;;;1.30;;
47778;SDS011;33538;48.432;11.350;2024-01-15T08:10:16;5.60;;;1.80;;
47778;SDS011;33538;48.432;11.350;2024-01-15T08:12:43;1.45;;;0.90;;
47778;SDS011;33538;48.432;11.350;2024-01-15T08:15:10;1.77;;;0.85;;
47778;SDS011;33538;48.432;11.350;2024-01-15T08:17:37;4.65;;;1.67;;
47778;SDS011;33538;48.432;11.350;2024-01-15T08:20:04;3.65;;;1.73;;
47778;SDS011;33538;48.432;11.350;2024-01-15T08:22:32;3.15;;;1.20;;
47778;SDS011;33538;48.432;11.350;2024-01-15T08:25:00;2.00;;;1.40;;
47778;SDS011;33538;48.432;11.350;2024-01-15T08:27:27;2.42;;;1.33;;
47778;SDS011;33538;48.432;11.350;2024-01-15T08:29:55;3.42;;;1.10;;
47778;SDS011;33538;48.432;11.350;2024-01-15T08:32:22;6.35;;;1.73;;
47778;SDS011;33538;48.432;11.350;2024-01-15T08:34:48;6.15;;;1.42;;
47778;SDS011;33538;48.432;11.350;2024-01-15T08:37:15;4.28;;;1.23;;
47778;SDS011;33538;48.432;11.350;2024-01-15T08:39:42;3.05;;;1.85;;
47778;SDS011;33538;48.432;11.350;2024-01-15T08:42:10;2.92;;;1.40;;
47778;SDS011;33538;48.432;11.350;2024-01-15T08:44:37;4.88;;;2.40;;
47778;SDS011;33538;48.432;11.350;2024-01-15T08:47:04;4.32;;;1.92;;
47778;SDS011;33538;48.432;11.350;2024-01-15T08:49:31;5.15;;;2.25;;
47778;SDS011;33538;48.432;11.350;2024-01-15T08:51:58;2.92;;;1.20;;
47778;SDS011;33538;48.432;11.350;2024-01-15T08:54:25;4.15;;;1.00;;
47778;SDS011;33538;48.432;11.350;2024-01-15T08:56:51;1.20;;;0.68;;
47778;SDS011;33538;48.432;11.350;2024-01-15T08:59:20;2.67;;;1.05;;
47778;SDS011;33538;48.432;11.350;2024-01-15T09:01:46;4.50;;;1.65;;
47778;SDS011;33538;48.432;11.350;2024-01-15T09:04:13;2.00;;;1.00;;
47778;SDS011;33538;48.432;11.350;2024-01-15T09:06:40;3.30;;;1.35;;
47778;SDS011;33538;48.432;11.350;2024-01-15T09:09:10;2.65;;;1.02;;
47778;SDS011;33538;48.432;11.350;2024-01-15T09:11:37;5.60;;;1.35;;
47778;SDS011;33538;48.432;11.350;2024-01-15T09:14:04;2.65;;;1.23;;
47778;SDS011;33538;48.432;11.350;2024-01-15T09:16:32;2.83;;;0.80;;
47778;SDS011;33538;48.432;11.350;2024-01-15T09:18:59;4.35;;;1.95;;
47778;SDS011;33538;48.432;11.350;2024-01-15T09:21:26;0.73;;;0.65;;
47778;SDS011;33538;48.432;11.350;2024-01-15T09:23:53;4.38;;;1.40;;
47778;SDS011;33538;48.432;11.350;2024-01-15T09:26:19;3.38;;;1.15;;
47778;SDS011;33538;48.432;11.350;2024-01-15T09:28:46;1.98;;;0.98;;
47778;SDS011;33538;48.432;11.350;2024-01-15T09:31:13;5.30;;;1.17;;
47778;SDS011;33538;48.432;11.350;2024-01-15T09:33:41;4.65;;;1.52;;
47778;SDS011;33538;48.432;11.350;2024-01-15T09:36:08;4.97;;;1.67;;
47778;SDS011;33538;48.432;11.350;2024-01-15T09:38:35;3.10;;;1.50;;
47778;SDS011;33538;48.432;11.350;2024-01-15T09:41:02;3.03;;;1.38;;
47778;SDS011;33538;48.432;11.350;2024-01-15T09:43:29;2.88;;;1.20;;
47778;SDS011;33538;48.432;11.350;2024-01-15T09:45:55;5.28;;;1.75;;
47778;SDS011;33538;48.432;11.350;2024-01-15T09:48:23;2.08;;;0.93;;
47778;SDS011;33538;48.432;11.350;2024-01-15T09:50:51;3.15;;;1.30;;
47778;SDS011;33538;48.432;11.350;2024-01-15T09:53:19;2.92;;;1.27;;
47778;SDS011;33538;48.432;11.350;2024-01-15T09:55:46;3.10;;;1.25;;
47778;SDS011;33538;48.432;11.350;2024-01-15T09:58:15;2.22;;;0.90;;
47778;SDS011;33538;48.432;11.350;2024-01-15T10:00:42;1.80;;;1.20;;
47778;SDS011;33538;48.432;11.350;2024-01-15T10:03:10;0.55;;;0.52;;
47778;SDS011;33538;48.432;11.350;2024-01-15T10:05:38;2.03;;;0.98;;
47778;SDS011;33538;48.432;11.350;2024-01-15T10:08:06;2.80;;;1.25;;
47778;SDS011;33538;48.432;11.350;2024-01-15T10:10:34;0.80;;;0.73;;
47778;SDS011;33538;48.432;11.350;2024-01-15T10:13:03;2.95;;;0.85;;
47778;SDS011;33538;48.432;11.350;2024-01-15T10:15:33;1.30;;;0.60;;
47778;SDS011;33538;48.432;11.350;2024-01-15T10:18:00;2.65;;;1.10;;
47778;SDS011;33538;48.432;11.350;2024-01-15T10:20:27;1.10;;;0.60;;
47778;SDS011;33538;48.432;11.350;2024-01-15T10:22:54;2.13;;;0.73;;
47778;SDS011;33538;48.432;11.350;2024-01-15T10:25:23;2.53;;;0.90;;
47778;SDS011;33538;48.432;11.350;2024-01-15T10:27:59;0.63;;;0.60;;
47778;SDS011;33538;48.432;11.350;2024-01-15T10:30:26;2.88;;;1.05;;
47778;SDS011;33538;48.432;11.350;2024-01-15T10:32:57;0.85;;;0.65;;
47778;SDS011;33538;48.432;11.350;2024-01-15T10:35:26;1.10;;;0.70;;
47778;SDS011;33538;48.432;11.350;2024-01-15T10:37:53;0.68;;;0.52;;
47778;SDS011;33538;48.432;11.350;2024-01-15T10:40:20;0.65;;;0.50;;
47778;SDS011;33538;48.432;11.350;2024-01-15T10:42:48;0.57;;;0.40;;
47778;SDS011;33538;48.432;11.350;2024-01-15T10:45:15;2.63;;;1.15;;
47778;SDS011;33538;48.432;11.350;2024-01-15T10:47:43;2.70;;;0.80;;
47778;SDS011;33538;48.432;11.350;2024-01-15T10:50:10;1.20;;;0.90;;
47778;SDS011;33538;48.432;11.350;2024-01-15T10:52:37;1.90;;;0.90;;
47778;SDS011;33538;48.432;11.350;2024-01-15T10:55:05;1.23;;;0.70;;
47778;SDS011;33538;48.432;11.350;2024-01-15T10:57:41;3.80;;;0.93;;
47778;SDS011;33538;48.432;11.350;2024-01-15T11:00:11;1.38;;;0.90;;
47778;SDS011;33538;48.432;11.350;2024-01-15T11:02:38;1.40;;;0.95;;
47778;SDS011;33538;48.432;11.350;2024-01-15T11:05:05;0.73;;;0.73;;
47778;SDS011;33538;48.432;11.350;2024-01-15T11:07:32;5.82;;;0.40;;
47778;SDS011;33538;48.432;11.350;2024-01-15T11:09:59;3.10;;;0.90;;
47778;SDS011;33538;48.432;11.350;2024-01-15T11:12:30;1.27;;;1.02;;
47778;SDS011;33538;48.432;11.350;2024-01-15T11:15:01;2.25;;;0.95;;
47778;SDS011;33538;48.432;11.350;2024-01-15T11:17:30;1.30;;;0.98;;
47778;SDS011;33538;48.432;11.350;2024-01-15T11:20:27;1.98;;;1.10;;
47778;SDS011;33538;48.432;11.350;2024-01-15T11:22:54;2.20;;;1.40;;
47778;SDS011;33538;48.432;11.350;2024-01-15T11:25:21;4.25;;;1.48;;
47778;SDS011;33538;48.432;11.350;2024-01-15T11:27:49;2.65;;;1.13;;
47778;SDS011;33538;48.432;11.350;2024-01-15T11:30:17;3.20;;;1.33;;
47778;SDS011;33538;48.432;11.350;2024-01-15T11:32:46;3.20;;;1.33;;
47778;SDS011;33538;48.432;11.350;2024-01-15T11:35:13;3.03;;;1.50;;
47778;SDS011;33538;48.432;11.350;2024-01-15T11:37:56;6.65;;;1.40;;
47778;SDS011;33538;48.432;11.350;2024-01-15T11:40:36;1.87;;;1.30;;
47778;SDS011;33538;48.432;11.350;2024-01-15T11:43:04;2.80;;;0.82;;
47778;SDS011;33538;48.432;11.350;2024-01-15T11:45:32;1.33;;;0.68;;
47778;SDS011;33538;48.432;11.350;2024-01-15T11:48:13;1.25;;;0.75;;
47778;SDS011;33538;48.432;11.350;2024-01-15T11:50:42;2.08;;;0.95;;
47778;SDS011;33538;48.432;11.350;2024-01-15T11:53:16;1.48;;;0.75;;
47778;SDS011;33538;48.432;11.350;2024-01-15T11:55:44;1.90;;;1.00;;
47778;SDS011;33538;48.432;11.350;2024-01-15T11:58:11;1.75;;;1.00;;
47778;SDS011;33538;48.432;11.350;2024-01-15T12:00:42;2.83;;;1.20;;
47778;SDS011;33538;48.432;11.350;2024-01-15T12:03:10;2.22;;;1.05;;
47778;SDS011;33538;48.432;11.350;2024-01-15T12:05:39;3.03;;;1.05;;
47778;SDS011;33538;48.432;11.350;2024-01-15T12:08:06;5.00;;;0.90;;
47778;SDS011;33538;48.432;11.350;2024-01-15T12:10:33;2.20;;;1.27;;
47778;SDS011;33538;48.432;11.350;2024-01-15T12:13:00;1.85;;;1.15;;
47778;SDS011;33538;48.432;11.350;2024-01-15T12:15:31;2.65;;;0.98;;
47778;SDS011;33538;48.432;11.350;2024-01-15T12:17:59;5.43;;;1.40;;
47778;SDS011;33538;48.432;11.350;2024-01-15T12:20:29;2.38;;;1.10;;
47778;SDS011;33538;48.432;11.350;2024-01-15T12:22:56;2.05;;;1.25;;
47778;SDS011;33538;48.432;11.350;2024-01-15T12:25:29;2.45;;;1.20;;
47778;SDS011;33538;48.432;11.350;2024-01-15T12:27:57;3.22;;;1.00;;
47778;SDS011;33538;48.432;11.350;2024-01-15T12:30:25;1.73;;;1.08;;
47778;SDS011;33538;48.432;11.350;2024-01-15T12:32:53;1.98;;;1.10;;
47778;SDS011;33538;48.432;11.350;2024-01-15T12:35:20;5.90;;;1.45;;
47778;SDS011;33538;48.432;11.350;2024-01-15T12:37:48;2.63;;;0.77;;
47778;SDS011;33538;48.432;11.350;2024-01-15T12:40:18;2.65;;;1.15;;
47778;SDS011;33538;48.432;11.350;2024-01-15T12:42:45;2.85;;;1.60;;
47778;SDS011;33538;48.432;11.350;2024-01-15T12:45:13;2.28;;;1.23;;
47778;SDS011;33538;48.432;11.350;2024-01-15T12:47:40;1.95;;;1.55;;
47778;SDS011;33538;48.432;11.350;2024-01-15T12:50:08;2.30;;;1.17;;
47778;SDS011;33538;48.432;11.350;2024-01-15T12:52:45;2.22;;;0.82;;
47778;SDS011;33538;48.432;11.350;2024-01-15T12:55:13;4.15;;;1.50;;
47778;SDS011;33538;48.432;11.350;2024-01-15T12:57:40;2.28;;;1.10;;
47778;SDS011;33538;48.432;11.350;2024-01-15T13:00:07;4.90;;;2.00;;
47778;SDS011;33538;48.432;11.350;2024-01-15T13:02:35;1.85;;;0.95;;
47778;SDS011;33538;48.432;11.350;2024-01-15T13:05:02;2.92;;;1.52;;
47778;SDS011;33538;48.432;11.350;2024-01-15T13:07:30;2.33;;;1.15;;
47778;SDS011;33538;48.432;11.350;2024-01-15T13:09:57;1.38;;;1.20;;
47778;SDS011;33538;48.432;11.350;2024-01-15T13:12:25;1.73;;;0.93;;
47778;SDS011;33538;48.432;11.350;2024-01-15T13:14:52;2.75;;;0.73;;
47778;SDS011;33538;48.432;11.350;2024-01-15T13:17:19;2.53;;;1.23;;
47778;SDS011;33538;48.432;11.350;2024-01-15T13:19:46;2.60;;;1.52;;
47778;SDS011;33538;48.432;11.350;2024-01-15T13:22:13;2.22;;;1.23;;
47778;SDS011;33538;48.432;11.350;2024-01-15T13:24:39;3.25;;;1.20;;
47778;SDS011;33538;48.432;11.350;2024-01-15T13:27:06;1.65;;;1.00;;
47778;SDS011;33538;48.432;11.350;2024-01-15T13:29:35;3.15;;;1.75;;
47778;SDS011;33538;48.432;11.350;2024-01-15T13:32:01;2.00;;;1.20;;
47778;SDS011;33538;48.432;11.350;2024-01-15T13:34:29;1.50;;;1.02;;
47778;SDS011;33538;48.432;11.350;2024-01-15T13:36:56;2.60;;;1.33;;
47778;SDS011;33538;48.432;11.350;2024-01-15T13:39:22;4.40;;;1.23;;
47778;SDS011;33538;48.432;11.350;2024-01-15T13:41:49;2.38;;;0.75;;
47778;SDS011;33538;48.432;11.350;2024-01-15T13:44:16;1.67;;;1.08;;
47778;SDS011;33538;48.432;11.350;2024-01-15T13:46:44;3.58;;;2.03;;
47778;SDS011;33538;48.432;11.350;2024-01-15T13:49:11;2.15;;;1.63;;
47778;SDS011;33538;48.432;11.350;2024-01-15T13:51:38;2.75;;;1.40;;
47778;SDS011;33538;48.432;11.350;2024-01-15T13:54:04;3.30;;;1.48;;
47778;SDS011;33538;48.432;11.350;2024-01-15T13:56:31;3.03;;;2.03;;
47778;SDS011;33538;48.432;11.350;2024-01-15T13:58:58;3.25;;;1.40;;
47778;SDS011;33538;48.432;11.350;2024-01-15T14:01:25;3.42;;;2.05;;
47778;SDS011;33538;48.432;11.350;2024-01-15T14:03:53;4.10;;;2.22;;
47778;SDS011;33538;48.432;11.350;2024-01-15T14:06:20;5.05;;;2.00;;
47778;SDS011;33538;48.432;11.350;2024-01-15T14:08:47;2.97;;;1.63;;
47778;SDS011;33538;48.432;11.350;2024-01-15T14:11:14;3.20;;;1.35;;
47778;SDS011;33538;48.432;11.350;2024-01-15T14:13:41;3.47;;;1.52;;
47778;SDS011;33538;48.432;11.350;2024-01-15T14:16:08;2.53;;;1.55;;
47778;SDS011;33538;48.432;11.350;2024-01-15T14:18:34;4.10;;;1.90;;
47778;SDS011;33538;48.432;11.350;2024-01-15T14:21:03;4.35;;;1.90;;
47778;SDS011;33538;48.432;11.350;2024-01-15T14:23:30;4.75;;;2.15;;
47778;SDS011;33538;48.432;11.350;2024-01-15T14:25:57;6.18;;;2.45;;
47778;SDS011;33538;48.432;11.350;2024-01-15T14:28:24;3.25;;;1.67;;
47778;SDS011;33538;48.432;11.350;2024-01-15T14:30:50;3.35;;;1.85;;
47778;SDS011;33538;48.432;11.350;2024-01-15T14:33:17;1.70;;;1.00;;